sensor_id;sensor_type;location;lat;lon;timestamp;temperature;humidity
78788;DHT22;68131;52.508;5.502;2023-03-14T00:00:32;12.10;66.90
78788;DHT22;68131;52.508;5.502;2023-03-14T00:03:01;12.10;67.00
78788;DHT22;68131;52.508;5.502;2023-03-14T00:05:30;12.00;67.10
78788;DHT22;68131;52.508;5.502;2023-03-14T00:08:02;11.90;67.20
78788;DHT22;68131;52.508;5.502;2023-03-14T00:10:31;11.90;67.20
78788;DHT22;68131;52.508;5.502;2023-03-14T00:13:00;11.80;67.30
78788;DHT22;68131;52.508;5.502;2023-03-14T00:15:29;11.80;67.40
78788;DHT22;68131;52.508;5.502;2023-03-14T00:17:58;11.70;67.60
78788;DHT22;68131;52.508;5.502;2023-03-14T00:20:27;11.70;67.60
78788;DHT22;68131;52.508;5.502;2023-03-14T00:22:57;11.70;67.70
78788;DHT22;68131;52.508;5.502;2023-03-14T00:25:28;11.70;67.80
78788;DHT22;68131;52.508;5.502;2023-03-14T00:27:57;11.70;67.80
78788;DHT22;68131;52.508;5.502;2023-03-14T00:30:26;11.70;67.90
78788;DHT22;68131;52.508;5.502;2023-03-14T00:32:56;11.70;68.00
78788;DHT22;68131;52.508;5.502;2023-03-14T00:35:25;11.70;68.00
78788;DHT22;68131;52.508;5.502;2023-03-14T00:37:54;11.70;68.10
78788;DHT22;68131;52.508;5.502;2023-03-14T00:40:23;11.70;68.00
78788;DHT22;68131;52.508;5.502;2023-03-14T00:42:55;11.70;68.10
78788;DHT22;68131;52.508;5.502;2023-03-14T00:45:26;11.70;68.20
78788;DHT22;68131;52.508;5.502;2023-03-14T00:47:55;11.70;68.20
78788;DHT22;68131;52.508;5.502;2023-03-14T00:50:24;11.70;68.20
78788;DHT22;68131;52.508;5.502;2023-03-14T00:52:53;11.70;68.20
78788;DHT22;68131;52.508;5.502;2023-03-14T00:55:22;11.70;68.30
78788;DHT22;68131;52.508;5.502;2023-03-14T00:57:54;11.70;68.40
78788;DHT22;68131;52.508;5.502;2023-03-14T01:00:23;11.70;68.40
78788;DHT22;68131;52.508;5.502;2023-03-14T01:02:52;11.80;68.30
78788;DHT22;68131;52.508;5.502;2023-03-14T01:05:24;11.80;68.30
78788;DHT22;68131;52.508;5.502;2023-03-14T01:07:53;11.80;68.40
78788;DHT22;68131;52.508;5.502;2023-03-14T01:10:22;11.80;68.30
78788;DHT22;68131;52.508;5.502;2023-03-14T01:12:54;11.80;68.30
78788;DHT22;68131;52.508;5.502;2023-03-14T01:15:23;11.90;68.20
78788;DHT22;68131;52.508;5.502;2023-03-14T01:17:53;11.90;68.20
78788;DHT22;68131;52.508;5.502;2023-03-14T01:20:23;11.90;68.20
78788;DHT22;68131;52.508;5.502;2023-03-14T01:22:53;11.90;68.20
78788;DHT22;68131;52.508;5.502;2023-03-14T01:25:22;11.90;68.10
78788;DHT22;68131;52.508;5.502;2023-03-14T01:27:54;11.90;68.10
78788;DHT22;68131;52.508;5.502;2023-03-14T01:30:24;11.90;68.10
78788;DHT22;68131;52.508;5.502;2023-03-14T01:32:53;11.90;68.20
78788;DHT22;68131;52.508;5.502;2023-03-14T01:35:23;11.80;68.20
78788;DHT22;68131;52.508;5.502;2023-03-14T01:37:52;11.80;68.30
78788;DHT22;68131;52.508;5.502;2023-03-14T01:40:22;11.80;68.30
78788;DHT22;68131;52.508;5.502;2023-03-14T01:43:00;11.80;68.30
78788;DHT22;68131;52.508;5.502;2023-03-14T01:46:01;11.80;68.30
78788;DHT22;68131;52.508;5.502;2023-03-14T01:48:46;11.80;68.40
78788;DHT22;68131;52.508;5.502;2023-03-14T01:51:18;11.80;68.50
78788;DHT22;68131;52.508;5.502;2023-03-14T01:53:49;11.80;68.80
78788;DHT22;68131;52.508;5.502;2023-03-14T01:56:19;11.70;69.30
78788;DHT22;68131;52.508;5.502;2023-03-14T01:58:52;11.70;69.60
78788;DHT22;68131;52.508;5.502;2023-03-14T02:01:24;11.60;70.10
78788;DHT22;68131;52.508;5.502;2023-03-14T02:03:55;11.60;70.20
78788;DHT22;68131;52.508;5.502;2023-03-14T02:06:31;11.60;70.40
78788;DHT22;68131;52.508;5.502;2023-03-14T02:09:02;11.50;70.80
78788;DHT22;68131;52.508;5.502;2023-03-14T02:11:34;11.40;71.10
78788;DHT22;68131;52.508;5.502;2023-03-14T02:14:22;11.40;71.10
78788;DHT22;68131;52.508;5.502;2023-03-14T02:17:18;11.40;71.20
78788;DHT22;68131;52.508;5.502;2023-03-14T02:20:13;11.30;71.50
78788;DHT22;68131;52.508;5.502;2023-03-14T02:22:53;11.30;71.70
78788;DHT22;68131;52.508;5.502;2023-03-14T02:25:31;11.20;71.80
78788;DHT22;68131;52.508;5.502;2023-03-14T02:28:06;11.20;71.80
78788;DHT22;68131;52.508;5.502;2023-03-14T02:30:37;11.20;71.90
78788;DHT22;68131;52.508;5.502;2023-03-14T02:33:08;11.30;71.80
78788;DHT22;68131;52.508;5.502;2023-03-14T02:35:39;11.30;71.80
78788;DHT22;68131;52.508;5.502;2023-03-14T02:38:17;11.30;71.80
78788;DHT22;68131;52.508;5.502;2023-03-14T02:40:48;11.30;71.90
78788;DHT22;68131;52.508;5.502;2023-03-14T02:43:20;11.30;71.80
78788;DHT22;68131;52.508;5.502;2023-03-14T02:45:56;11.30;71.80
78788;DHT22;68131;52.508;5.502;2023-03-14T02:48:26;11.30;71.80
78788;DHT22;68131;52.508;5.502;2023-03-14T02:50:58;11.30;71.80
78788;DHT22;68131;52.508;5.502;2023-03-14T02:53:32;11.30;71.80
78788;DHT22;68131;52.508;5.502;2023-03-14T02:56:07;11.30;71.90
78788;DHT22;68131;52.508;5.502;2023-03-14T02:58:39;11.30;72.00
78788;DHT22;68131;52.508;5.502;2023-03-14T03:01:19;11.30;72.10
78788;DHT22;68131;52.508;5.502;2023-03-14T03:03:49;11.30;72.10
78788;DHT22;68131;52.508;5.502;2023-03-14T03:06:20;11.30;72.20
78788;DHT22;68131;52.508;5.502;2023-03-14T03:08:49;11.30;72.40
78788;DHT22;68131;52.508;5.502;2023-03-14T03:11:18;11.20;72.40
78788;DHT22;68131;52.508;5.502;2023-03-14T03:13:50;11.20;72.50
78788;DHT22;68131;52.508;5.502;2023-03-14T03:16:19;11.20;72.50
78788;DHT22;68131;52.508;5.502;2023-03-14T03:18:48;11.20;72.60
78788;DHT22;68131;52.508;5.502;2023-03-14T03:21:17;11.10;72.90
78788;DHT22;68131;52.508;5.502;2023-03-14T03:23:49;11.10;73.00
78788;DHT22;68131;52.508;5.502;2023-03-14T03:26:18;11.10;73.10
78788;DHT22;68131;52.508;5.502;2023-03-14T03:28:50;11.10;73.20
78788;DHT22;68131;52.508;5.502;2023-03-14T03:31:20;11.10;73.20
78788;DHT22;68131;52.508;5.502;2023-03-14T03:33:49;11.00;73.40
78788;DHT22;68131;52.508;5.502;2023-03-14T03:36:21;11.00;73.40
78788;DHT22;68131;52.508;5.502;2023-03-14T03:38:50;11.00;73.60
78788;DHT22;68131;52.508;5.502;2023-03-14T03:41:19;11.00;73.60
78788;DHT22;68131;52.508;5.502;2023-03-14T03:43:53;10.90;73.60
78788;DHT22;68131;52.508;5.502;2023-03-14T03:46:23;10.90;73.60
78788;DHT22;68131;52.508;5.502;2023-03-14T03:48:54;10.80;73.70
78788;DHT22;68131;52.508;5.502;2023-03-14T03:51:24;10.80;73.70
78788;DHT22;68131;52.508;5.502;2023-03-14T03:53:54;10.80;73.70
78788;DHT22;68131;52.508;5.502;2023-03-14T03:56:33;10.80;73.80
78788;DHT22;68131;52.508;5.502;2023-03-14T03:59:05;10.80;73.80
78788;DHT22;68131;52.508;5.502;2023-03-14T04:01:34;10.80;73.70
78788;DHT22;68131;52.508;5.502;2023-03-14T04:04:03;10.90;73.60
78788;DHT22;68131;52.508;5.502;2023-03-14T04:06:32;10.90;73.60
78788;DHT22;68131;52.508;5.502;2023-03-14T04:09:02;10.90;73.50
78788;DHT22;68131;52.508;5.502;2023-03-14T04:11:37;10.90;73.50
78788;DHT22;68131;52.508;5.502;2023-03-14T04:14:32;10.90;73.50
78788;DHT22;68131;52.508;5.502;2023-03-14T04:17:09;10.90;73.40
78788;DHT22;68131;52.508;5.502;2023-03-14T04:19:39;10.90;73.40
78788;DHT22;68131;52.508;5.502;2023-03-14T04:22:09;10.90;73.40
78788;DHT22;68131;52.508;5.502;2023-03-14T04:24:46;11.00;73.30
78788;DHT22;68131;52.508;5.502;2023-03-14T04:27:15;11.00;73.30
78788;DHT22;68131;52.508;5.502;2023-03-14T04:29:48;11.00;73.30
78788;DHT22;68131;52.508;5.502;2023-03-14T04:32:23;11.00;73.20
78788;DHT22;68131;52.508;5.502;2023-03-14T04:34:52;11.00;73.30
78788;DHT22;68131;52.508;5.502;2023-03-14T04:37:21;11.10;73.20
78788;DHT22;68131;52.508;5.502;2023-03-14T04:39:51;11.10;73.20
78788;DHT22;68131;52.508;5.502;2023-03-14T04:42:26;11.10;73.20
78788;DHT22;68131;52.508;5.502;2023-03-14T04:44:57;11.10;73.20
78788;DHT22;68131;52.508;5.502;2023-03-14T04:47:29;11.10;73.20
78788;DHT22;68131;52.508;5.502;2023-03-14T04:49:59;11.10;73.30
78788;DHT22;68131;52.508;5.502;2023-03-14T04:52:29;11.10;73.40
78788;DHT22;68131;52.508;5.502;2023-03-14T04:54:59;11.10;73.50
78788;DHT22;68131;52.508;5.502;2023-03-14T04:57:28;11.10;73.70
78788;DHT22;68131;52.508;5.502;2023-03-14T05:00:01;11.10;73.70
78788;DHT22;68131;52.508;5.502;2023-03-14T05:02:59;11.00;73.90
78788;DHT22;68131;52.508;5.502;2023-03-14T05:05:46;11.00;74.00
78788;DHT22;68131;52.508;5.502;2023-03-14T05:08:34;11.00;74.10
78788;DHT22;68131;52.508;5.502;2023-03-14T05:11:22;11.00;74.10
78788;DHT22;68131;52.508;5.502;2023-03-14T05:14:05;10.90;74.20
78788;DHT22;68131;52.508;5.502;2023-03-14T05:16:59;10.90;74.20
78788;DHT22;68131;52.508;5.502;2023-03-14T05:19:45;10.90;74.30
78788;DHT22;68131;52.508;5.502;2023-03-14T05:22:23;10.80;74.50
78788;DHT22;68131;52.508;5.502;2023-03-14T05:25:22;10.80;74.50
78788;DHT22;68131;52.508;5.502;2023-03-14T05:28:23;10.80;74.60
78788;DHT22;68131;52.508;5.502;2023-03-14T05:31:11;10.80;74.60
78788;DHT22;68131;52.508;5.502;2023-03-14T05:33:49;10.80;74.60
78788;DHT22;68131;52.508;5.502;2023-03-14T05:36:45;10.80;74.60
78788;DHT22;68131;52.508;5.502;2023-03-14T05:39:32;10.80;74.70
78788;DHT22;68131;52.508;5.502;2023-03-14T05:42:10;10.70;74.70
78788;DHT22;68131;52.508;5.502;2023-03-14T05:44:58;10.80;74.70
78788;DHT22;68131;52.508;5.502;2023-03-14T05:47:50;10.80;74.80
78788;DHT22;68131;52.508;5.502;2023-03-14T05:50:36;10.80;74.70
78788;DHT22;68131;52.508;5.502;2023-03-14T05:53:29;10.80;74.80
78788;DHT22;68131;52.508;5.502;2023-03-14T05:56:16;10.70;75.10
78788;DHT22;68131;52.508;5.502;2023-03-14T05:59:10;10.70;75.10
78788;DHT22;68131;52.508;5.502;2023-03-14T06:02:04;10.70;75.10
78788;DHT22;68131;52.508;5.502;2023-03-14T06:04:44;10.70;75.10
78788;DHT22;68131;52.508;5.502;2023-03-14T06:07:16;10.70;75.20
78788;DHT22;68131;52.508;5.502;2023-03-14T06:09:46;10.80;75.30
78788;DHT22;68131;52.508;5.502;2023-03-14T06:12:17;10.70;75.40
78788;DHT22;68131;52.508;5.502;2023-03-14T06:14:46;10.80;75.50
78788;DHT22;68131;52.508;5.502;2023-03-14T06:17:16;10.70;75.30
78788;DHT22;68131;52.508;5.502;2023-03-14T06:19:58;10.80;75.40
78788;DHT22;68131;52.508;5.502;2023-03-14T06:22:31;10.70;75.10
78788;DHT22;68131;52.508;5.502;2023-03-14T06:25:00;10.60;75.00
78788;DHT22;68131;52.508;5.502;2023-03-14T06:27:30;10.40;75.10
78788;DHT22;68131;52.508;5.502;2023-03-14T06:29:59;10.20;75.10
78788;DHT22;68131;52.508;5.502;2023-03-14T06:32:30;10.10;75.10
78788;DHT22;68131;52.508;5.502;2023-03-14T06:35:05;10.00;75.10
78788;DHT22;68131;52.508;5.502;2023-03-14T06:37:40;9.90;75.20
78788;DHT22;68131;52.508;5.502;2023-03-14T06:40:11;9.80;75.20
78788;DHT22;68131;52.508;5.502;2023-03-14T06:42:54;9.70;75.20
78788;DHT22;68131;52.508;5.502;2023-03-14T06:45:25;9.60;75.10
78788;DHT22;68131;52.508;5.502;2023-03-14T06:47:55;9.50;75.10
78788;DHT22;68131;52.508;5.502;2023-03-14T06:50:32;9.40;75.00
78788;DHT22;68131;52.508;5.502;2023-03-14T06:53:06;9.40;75.10
78788;DHT22;68131;52.508;5.502;2023-03-14T06:55:39;9.30;74.80
78788;DHT22;68131;52.508;5.502;2023-03-14T06:58:09;9.20;75.10
78788;DHT22;68131;52.508;5.502;2023-03-14T07:00:42;9.20;75.20
78788;DHT22;68131;52.508;5.502;2023-03-14T07:03:15;9.20;75.20
78788;DHT22;68131;52.508;5.502;2023-03-14T07:05:48;9.20;75.00
78788;DHT22;68131;52.508;5.502;2023-03-14T07:08:20;9.20;74.80
78788;DHT22;68131;52.508;5.502;2023-03-14T07:10:49;9.10;74.50
78788;DHT22;68131;52.508;5.502;2023-03-14T07:13:18;9.00;74.40
78788;DHT22;68131;52.508;5.502;2023-03-14T07:15:57;8.80;74.30
78788;DHT22;68131;52.508;5.502;2023-03-14T07:18:27;8.70;74.00
78788;DHT22;68131;52.508;5.502;2023-03-14T07:20:56;8.50;73.80
78788;DHT22;68131;52.508;5.502;2023-03-14T07:23:28;8.40;74.00
78788;DHT22;68131;52.508;5.502;2023-03-14T07:25:57;8.30;74.10
78788;DHT22;68131;52.508;5.502;2023-03-14T07:28:27;8.30;73.90
78788;DHT22;68131;52.508;5.502;2023-03-14T07:31:11;8.30;74.00
78788;DHT22;68131;52.508;5.502;2023-03-14T07:33:40;8.20;73.70
78788;DHT22;68131;52.508;5.502;2023-03-14T07:36:10;8.20;73.70
78788;DHT22;68131;52.508;5.502;2023-03-14T07:38:45;8.10;73.50
78788;DHT22;68131;52.508;5.502;2023-03-14T07:41:29;8.00;73.50
78788;DHT22;68131;52.508;5.502;2023-03-14T07:44:24;7.90;73.40
78788;DHT22;68131;52.508;5.502;2023-03-14T07:46:53;7.80;73.00
78788;DHT22;68131;52.508;5.502;2023-03-14T07:49:22;7.60;73.00
78788;DHT22;68131;52.508;5.502;2023-03-14T07:51:51;7.40;73.30
78788;DHT22;68131;52.508;5.502;2023-03-14T07:54:23;7.40;73.40
78788;DHT22;68131;52.508;5.502;2023-03-14T07:56:52;7.40;73.60
78788;DHT22;68131;52.508;5.502;2023-03-14T07:59:21;7.40;73.60
78788;DHT22;68131;52.508;5.502;2023-03-14T08:01:50;7.50;73.60
78788;DHT22;68131;52.508;5.502;2023-03-14T08:04:19;7.60;73.50
78788;DHT22;68131;52.508;5.502;2023-03-14T08:06:49;7.60;73.30
78788;DHT22;68131;52.508;5.502;2023-03-14T08:09:18;7.60;73.20
78788;DHT22;68131;52.508;5.502;2023-03-14T08:11:50;7.70;73.00
78788;DHT22;68131;52.508;5.502;2023-03-14T08:14:19;7.80;72.40
78788;DHT22;68131;52.508;5.502;2023-03-14T08:16:50;7.70;72.10
78788;DHT22;68131;52.508;5.502;2023-03-14T08:19:19;7.70;72.20
78788;DHT22;68131;52.508;5.502;2023-03-14T08:21:48;7.70;72.30
78788;DHT22;68131;52.508;5.502;2023-03-14T08:24:17;7.80;72.10
78788;DHT22;68131;52.508;5.502;2023-03-14T08:26:46;8.00;71.90
78788;DHT22;68131;52.508;5.502;2023-03-14T08:29:18;8.00;71.50
78788;DHT22;68131;52.508;5.502;2023-03-14T08:31:47;8.00;71.20
78788;DHT22;68131;52.508;5.502;2023-03-14T08:34:16;8.00;71.20
78788;DHT22;68131;52.508;5.502;2023-03-14T08:36:46;8.00;70.40
78788;DHT22;68131;52.508;5.502;2023-03-14T08:39:16;7.90;70.90
78788;DHT22;68131;52.508;5.502;2023-03-14T08:41:45;7.90;71.00
78788;DHT22;68131;52.508;5.502;2023-03-14T08:44:14;8.00;71.00
78788;DHT22;68131;52.508;5.502;2023-03-14T08:46:46;8.00;70.60
78788;DHT22;68131;52.508;5.502;2023-03-14T08:49:15;8.10;70.60
78788;DHT22;68131;52.508;5.502;2023-03-14T08:51:44;8.30;70.60
78788;DHT22;68131;52.508;5.502;2023-03-14T08:54:13;8.40;70.20
78788;DHT22;68131;52.508;5.502;2023-03-14T08:56:42;8.50;69.50
78788;DHT22;68131;52.508;5.502;2023-03-14T08:59:11;8.50;69.50
78788;DHT22;68131;52.508;5.502;2023-03-14T09:01:40;8.50;69.30
78788;DHT22;68131;52.508;5.502;2023-03-14T09:04:12;8.60;69.10
78788;DHT22;68131;52.508;5.502;2023-03-14T09:06:42;8.60;68.60
78788;DHT22;68131;52.508;5.502;2023-03-14T09:09:11;8.60;69.10
78788;DHT22;68131;52.508;5.502;2023-03-14T09:11:40;8.60;68.60
78788;DHT22;68131;52.508;5.502;2023-03-14T09:14:09;8.70;68.70
78788;DHT22;68131;52.508;5.502;2023-03-14T09:16:38;8.70;67.90
78788;DHT22;68131;52.508;5.502;2023-03-14T09:19:07;8.70;68.20
78788;DHT22;68131;52.508;5.502;2023-03-14T09:21:39;8.70;68.20
78788;DHT22;68131;52.508;5.502;2023-03-14T09:24:08;8.70;67.90
78788;DHT22;68131;52.508;5.502;2023-03-14T09:26:37;8.70;67.90
78788;DHT22;68131;52.508;5.502;2023-03-14T09:29:06;8.70;67.70
78788;DHT22;68131;52.508;5.502;2023-03-14T09:31:35;8.60;68.10
78788;DHT22;68131;52.508;5.502;2023-03-14T09:34:05;8.60;67.60
78788;DHT22;68131;52.508;5.502;2023-03-14T09:36:34;8.50;67.90
78788;DHT22;68131;52.508;5.502;2023-03-14T09:39:06;8.60;67.40
78788;DHT22;68131;52.508;5.502;2023-03-14T09:41:38;8.60;67.30
78788;DHT22;68131;52.508;5.502;2023-03-14T09:44:13;8.70;67.10
78788;DHT22;68131;52.508;5.502;2023-03-14T09:46:46;8.70;67.10
78788;DHT22;68131;52.508;5.502;2023-03-14T09:49:23;8.60;66.90
78788;DHT22;68131;52.508;5.502;2023-03-14T09:51:54;8.60;66.50
78788;DHT22;68131;52.508;5.502;2023-03-14T09:54:31;8.40;67.10
78788;DHT22;68131;52.508;5.502;2023-03-14T09:57:02;8.40;67.00
78788;DHT22;68131;52.508;5.502;2023-03-14T09:59:34;8.40;66.70
78788;DHT22;68131;52.508;5.502;2023-03-14T10:02:14;8.50;66.90
78788;DHT22;68131;52.508;5.502;2023-03-14T10:04:45;8.60;66.10
78788;DHT22;68131;52.508;5.502;2023-03-14T10:07:16;8.70;66.00
78788;DHT22;68131;52.508;5.502;2023-03-14T10:09:51;8.80;65.60
78788;DHT22;68131;52.508;5.502;2023-03-14T10:12:21;8.90;65.00
78788;DHT22;68131;52.508;5.502;2023-03-14T10:15:03;8.80;64.70
78788;DHT22;68131;52.508;5.502;2023-03-14T10:17:39;8.70;64.20
78788;DHT22;68131;52.508;5.502;2023-03-14T10:20:30;8.70;63.60
78788;DHT22;68131;52.508;5.502;2023-03-14T10:23:05;8.60;63.50
78788;DHT22;68131;52.508;5.502;2023-03-14T10:25:39;8.60;63.00
78788;DHT22;68131;52.508;5.502;2023-03-14T10:28:22;8.70;62.80
78788;DHT22;68131;52.508;5.502;2023-03-14T10:30:52;8.80;63.20
78788;DHT22;68131;52.508;5.502;2023-03-14T10:33:23;8.90;63.00
78788;DHT22;68131;52.508;5.502;2023-03-14T10:35:54;9.10;62.70
78788;DHT22;68131;52.508;5.502;2023-03-14T10:38:26;9.20;62.50
78788;DHT22;68131;52.508;5.502;2023-03-14T10:40:59;9.30;60.70
78788;DHT22;68131;52.508;5.502;2023-03-14T10:43:32;9.30;60.60
78788;DHT22;68131;52.508;5.502;2023-03-14T10:46:06;9.40;60.00
78788;DHT22;68131;52.508;5.502;2023-03-14T10:48:57;9.50;60.30
78788;DHT22;68131;52.508;5.502;2023-03-14T10:51:27;9.60;59.50
78788;DHT22;68131;52.508;5.502;2023-03-14T10:54:01;9.70;58.10
78788;DHT22;68131;52.508;5.502;2023-03-14T10:56:37;9.60;58.50
78788;DHT22;68131;52.508;5.502;2023-03-14T10:59:11;9.50;58.60
78788;DHT22;68131;52.508;5.502;2023-03-14T11:01:44;9.50;58.40
78788;DHT22;68131;52.508;5.502;2023-03-14T11:04:25;9.40;57.80
78788;DHT22;68131;52.508;5.502;2023-03-14T11:07:02;9.40;58.30
78788;DHT22;68131;52.508;5.502;2023-03-14T11:09:37;9.30;57.40
78788;DHT22;68131;52.508;5.502;2023-03-14T11:12:27;9.20;57.50
78788;DHT22;68131;52.508;5.502;2023-03-14T11:15:04;9.20;56.10
78788;DHT22;68131;52.508;5.502;2023-03-14T11:17:39;9.20;56.20
78788;DHT22;68131;52.508;5.502;2023-03-14T11:20:23;9.20;55.80
78788;DHT22;68131;52.508;5.502;2023-03-14T11:22:59;9.20;55.20
78788;DHT22;68131;52.508;5.502;2023-03-14T11:25:33;9.20;55.10
78788;DHT22;68131;52.508;5.502;2023-03-14T11:28:14;9.30;54.70
78788;DHT22;68131;52.508;5.502;2023-03-14T11:30:51;9.40;55.70
78788;DHT22;68131;52.508;5.502;2023-03-14T11:33:23;9.50;56.00
78788;DHT22;68131;52.508;5.502;2023-03-14T11:35:58;9.50;56.20
78788;DHT22;68131;52.508;5.502;2023-03-14T11:38:34;9.40;56.40
78788;DHT22;68131;52.508;5.502;2023-03-14T11:41:11;9.40;56.20
78788;DHT22;68131;52.508;5.502;2023-03-14T11:43:48;9.40;56.20
78788;DHT22;68131;52.508;5.502;2023-03-14T11:46:17;9.30;55.60
78788;DHT22;68131;52.508;5.502;2023-03-14T11:48:57;9.30;54.50
78788;DHT22;68131;52.508;5.502;2023-03-14T11:51:30;9.20;54.90
78788;DHT22;68131;52.508;5.502;2023-03-14T11:54:11;9.10;55.10
78788;DHT22;68131;52.508;5.502;2023-03-14T11:56:46;9.00;55.50
78788;DHT22;68131;52.508;5.502;2023-03-14T11:59:25;9.00;55.10
78788;DHT22;68131;52.508;5.502;2023-03-14T12:01:58;9.00;54.90
78788;DHT22;68131;52.508;5.502;2023-03-14T12:04:42;9.00;53.90
78788;DHT22;68131;52.508;5.502;2023-03-14T12:07:17;9.10;54.40
78788;DHT22;68131;52.508;5.502;2023-03-14T12:09:48;9.00;54.40
78788;DHT22;68131;52.508;5.502;2023-03-14T12:12:21;9.10;54.10
78788;DHT22;68131;52.508;5.502;2023-03-14T12:14:57;9.00;54.20
78788;DHT22;68131;52.508;5.502;2023-03-14T12:17:35;9.00;54.10
78788;DHT22;68131;52.508;5.502;2023-03-14T12:20:16;9.00;54.20
78788;DHT22;68131;52.508;5.502;2023-03-14T12:22:48;8.90;54.20
78788;DHT22;68131;52.508;5.502;2023-03-14T12:25:20;8.90;54.40
78788;DHT22;68131;52.508;5.502;2023-03-14T12:28:05;8.90;54.70
78788;DHT22;68131;52.508;5.502;2023-03-14T12:30:47;9.00;54.90
78788;DHT22;68131;52.508;5.502;2023-03-14T12:33:31;9.00;54.40
78788;DHT22;68131;52.508;5.502;2023-03-14T12:36:21;8.90;54.60
78788;DHT22;68131;52.508;5.502;2023-03-14T12:39:20;8.90;54.60
78788;DHT22;68131;52.508;5.502;2023-03-14T12:41:52;8.90;54.70
78788;DHT22;68131;52.508;5.502;2023-03-14T12:44:44;8.90;54.70
78788;DHT22;68131;52.508;5.502;2023-03-14T12:50:16;9.00;53.50
78788;DHT22;68131;52.508;5.502;2023-03-14T12:53:06;9.00;52.10
78788;DHT22;68131;52.508;5.502;2023-03-14T12:55:42;9.00;52.60
78788;DHT22;68131;52.508;5.502;2023-03-14T12:58:19;8.90;52.30
78788;DHT22;68131;52.508;5.502;2023-03-14T13:00:54;9.00;52.80
78788;DHT22;68131;52.508;5.502;2023-03-14T13:03:27;9.00;53.00
78788;DHT22;68131;52.508;5.502;2023-03-14T13:06:09;9.10;52.50
78788;DHT22;68131;52.508;5.502;2023-03-14T13:08:40;9.00;52.10
78788;DHT22;68131;52.508;5.502;2023-03-14T13:11:14;9.00;51.70
78788;DHT22;68131;52.508;5.502;2023-03-14T13:13:47;8.90;52.40
78788;DHT22;68131;52.508;5.502;2023-03-14T13:16:18;9.00;51.80
78788;DHT22;68131;52.508;5.502;2023-03-14T13:18:49;9.10;51.70
78788;DHT22;68131;52.508;5.502;2023-03-14T13:21:24;9.10;51.80
78788;DHT22;68131;52.508;5.502;2023-03-14T13:23:56;9.10;51.80
78788;DHT22;68131;52.508;5.502;2023-03-14T13:26:32;9.00;51.80
78788;DHT22;68131;52.508;5.502;2023-03-14T13:29:09;8.90;51.80
78788;DHT22;68131;52.508;5.502;2023-03-14T13:31:43;8.80;51.20
78788;DHT22;68131;52.508;5.502;2023-03-14T13:34:13;8.80;51.00
78788;DHT22;68131;52.508;5.502;2023-03-14T13:36:45;8.80;50.80
78788;DHT22;68131;52.508;5.502;2023-03-14T13:39:19;8.80;50.70
78788;DHT22;68131;52.508;5.502;2023-03-14T13:41:51;8.80;50.20
78788;DHT22;68131;52.508;5.502;2023-03-14T13:44:25;8.80;50.40
78788;DHT22;68131;52.508;5.502;2023-03-14T13:46:58;8.90;50.70
78788;DHT22;68131;52.508;5.502;2023-03-14T13:49:29;9.00;51.00
78788;DHT22;68131;52.508;5.502;2023-03-14T13:54:52;9.20;49.50
78788;DHT22;68131;52.508;5.502;2023-03-14T13:57:22;9.30;49.70
78788;DHT22;68131;52.508;5.502;2023-03-14T14:00:03;9.30;50.10
78788;DHT22;68131;52.508;5.502;2023-03-14T14:02:37;9.40;50.30
78788;DHT22;68131;52.508;5.502;2023-03-14T14:05:10;9.50;50.70
78788;DHT22;68131;52.508;5.502;2023-03-14T14:07:43;9.70;50.30
78788;DHT22;68131;52.508;5.502;2023-03-14T14:10:13;9.70;50.00
78788;DHT22;68131;52.508;5.502;2023-03-14T14:12:46;9.70;50.10
78788;DHT22;68131;52.508;5.502;2023-03-14T14:15:19;9.70;49.90
78788;DHT22;68131;52.508;5.502;2023-03-14T14:17:51;9.70;50.00
78788;DHT22;68131;52.508;5.502;2023-03-14T14:20:23;9.70;50.00
78788;DHT22;68131;52.508;5.502;2023-03-14T14:23:01;9.70;49.90
78788;DHT22;68131;52.508;5.502;2023-03-14T14:25:32;9.70;50.00
78788;DHT22;68131;52.508;5.502;2023-03-14T14:28:15;9.70;49.90
78788;DHT22;68131;52.508;5.502;2023-03-14T14:30:44;9.70;50.10
78788;DHT22;68131;52.508;5.502;2023-03-14T14:33:18;9.70;49.50
78788;DHT22;68131;52.508;5.502;2023-03-14T14:35:53;9.70;49.90
78788;DHT22;68131;52.508;5.502;2023-03-14T14:38:26;9.70;49.70
78788;DHT22;68131;52.508;5.502;2023-03-14T14:41:01;9.70;50.10
78788;DHT22;68131;52.508;5.502;2023-03-14T14:43:34;9.80;50.20
78788;DHT22;68131;52.508;5.502;2023-03-14T14:46:06;9.80;50.20
78788;DHT22;68131;52.508;5.502;2023-03-14T14:48:37;9.80;50.20
78788;DHT22;68131;52.508;5.502;2023-03-14T14:51:07;9.70;50.50
78788;DHT22;68131;52.508;5.502;2023-03-14T14:53:40;9.60;50.50
78788;DHT22;68131;52.508;5.502;2023-03-14T14:56:16;9.50;50.50
78788;DHT22;68131;52.508;5.502;2023-03-14T14:58:49;9.50;50.80
78788;DHT22;68131;52.508;5.502;2023-03-14T15:01:21;9.40;50.30
78788;DHT22;68131;52.508;5.502;2023-03-14T15:03:54;9.40;50.30
78788;DHT22;68131;52.508;5.502;2023-03-14T15:06:25;9.40;50.70
78788;DHT22;68131;52.508;5.502;2023-03-14T15:08:59;9.40;50.60
78788;DHT22;68131;52.508;5.502;2023-03-14T15:11:29;9.40;50.70
78788;DHT22;68131;52.508;5.502;2023-03-14T15:13:58;9.30;50.60
78788;DHT22;68131;52.508;5.502;2023-03-14T15:16:29;9.30;50.70
78788;DHT22;68131;52.508;5.502;2023-03-14T15:18:59;9.20;50.80
78788;DHT22;68131;52.508;5.502;2023-03-14T15:21:31;9.10;51.30
78788;DHT22;68131;52.508;5.502;2023-03-14T15:24:04;9.00;51.70
78788;DHT22;68131;52.508;5.502;2023-03-14T15:26:34;8.90;52.00
78788;DHT22;68131;52.508;5.502;2023-03-14T15:29:03;8.90;52.20
78788;DHT22;68131;52.508;5.502;2023-03-14T15:31:34;8.90;52.40
78788;DHT22;68131;52.508;5.502;2023-03-14T15:34:04;9.00;52.50
78788;DHT22;68131;52.508;5.502;2023-03-14T15:36:34;9.00;52.80
78788;DHT22;68131;52.508;5.502;2023-03-14T15:39:07;9.00;52.80
78788;DHT22;68131;52.508;5.502;2023-03-14T15:41:36;9.00;52.80
78788;DHT22;68131;52.508;5.502;2023-03-14T15:44:05;9.00;53.10
78788;DHT22;68131;52.508;5.502;2023-03-14T15:46:35;8.90;53.30
78788;DHT22;68131;52.508;5.502;2023-03-14T15:49:04;8.90;53.40
78788;DHT22;68131;52.508;5.502;2023-03-14T15:51:33;8.90;53.60
78788;DHT22;68131;52.508;5.502;2023-03-14T15:54:02;9.00;53.50
78788;DHT22;68131;52.508;5.502;2023-03-14T15:56:34;9.00;53.20
78788;DHT22;68131;52.508;5.502;2023-03-14T15:59:03;9.00;52.80
78788;DHT22;68131;52.508;5.502;2023-03-14T16:01:32;8.90;52.70
78788;DHT22;68131;52.508;5.502;2023-03-14T16:04:02;8.90;52.20
78788;DHT22;68131;52.508;5.502;2023-03-14T16:06:31;8.90;52.10
78788;DHT22;68131;52.508;5.502;2023-03-14T16:09:01;8.80;52.00
78788;DHT22;68131;52.508;5.502;2023-03-14T16:11:30;8.80;52.00
78788;DHT22;68131;52.508;5.502;2023-03-14T16:14:02;8.70;52.20
78788;DHT22;68131;52.508;5.502;2023-03-14T16:16:31;8.70;52.50
78788;DHT22;68131;52.508;5.502;2023-03-14T16:19:01;8.70;52.50
78788;DHT22;68131;52.508;5.502;2023-03-14T16:21:31;8.70;52.70
78788;DHT22;68131;52.508;5.502;2023-03-14T16:24:04;8.60;52.80
78788;DHT22;68131;52.508;5.502;2023-03-14T16:26:34;8.60;53.20